Terminal Aerodrome Forecast
Issued by NWS Wilmington, OH

Current Version | Previous Version | Graphics & Text | Print | Product List | Glossary On
Versions: 1 2 3 4 5 6 7 8 9 10 11 12 13 14 15 16 17 18 19 20 21 22 23 24 25 26 27 28 29 30 31 32 33 34 35
000
FTUS41 KILN 250900 AAA
TAFCVG
TAF AMD
KCVG 250912Z 2509/2612 22006KT P6SM SKC
     FM251500 26010KT P6SM SCT035
     FM251800 26009KT P6SM BKN035
     FM252300 VRB03KT P6SM BKN035=

USA.gov is the U.S. government's official web portal to all federal, state and local government web resources and services.